createdAt,value
2019-04-21T00:34:02.552Z,543.9
2019-04-21T01:20:34.052Z,547.1
2019-04-21T01:21:36.467Z,547.2
2019-04-21T01:22:38.900Z,547.4
2019-04-21T01:23:44.519Z,546.9
2019-04-21T09:33:20.675Z,569.7
2019-04-21T09:35:31.398Z,569.6
2019-04-21T09:46:27.570Z,570.2
2019-04-21T09:50:50.280Z,569.8
2019-04-21T09:51:55.236Z,570.8
2019-04-21T10:04:53.402Z,572
2019-04-21T10:05:56.888Z,572.2
2019-04-21T10:07:00.240Z,572
2019-04-21T10:08:06.316Z,572.8
2019-04-21T10:10:17.116Z,572.2
2019-04-21T10:12:26.609Z,572
2019-04-21T10:13:31.723Z,573
2019-04-21T10:14:34.995Z,572.1
2019-04-21T10:15:39.658Z,572.2
2019-04-21T10:16:44.943Z,572.6
2019-04-21T10:17:49.514Z,572.7
2019-04-21T10:18:53.107Z,573.3
2019-04-21T10:19:56.732Z,573.4
2019-04-21T10:21:01.665Z,573.3
2019-04-21T10:22:08.904Z,573.5
2019-04-21T10:23:13.490Z,573.6
2019-04-21T10:24:18.499Z,574.1
2019-04-21T10:25:23.333Z,573.7
2019-04-21T10:26:28.448Z,573.8
2019-04-21T10:27:32.879Z,574
2019-04-21T10:28:39.571Z,574.1
2019-04-21T10:30:50.845Z,574.4
2019-04-21T10:31:55.580Z,575
2019-04-21T10:33:01.199Z,574.5
2019-04-21T10:34:07.281Z,574.5
2019-04-21T10:35:11.351Z,574.6
2019-04-21T10:36:17.104Z,574.6
2019-04-21T10:39:35.678Z,575.5
2019-04-21T10:40:43.352Z,575.3
2019-04-21T10:41:48.410Z,575.4
2019-04-21T10:42:54.129Z,576.2
2019-04-21T10:43:58.909Z,575.8
2019-04-21T10:45:05.664Z,575.5
2019-04-21T10:46:10.711Z,576
2019-04-21T10:48:23.000Z,576.3
2019-04-21T10:49:28.669Z,575.9
2019-04-21T10:50:32.330Z,576.6
2019-04-21T10:51:37.466Z,576.4
2019-04-21T10:52:41.086Z,577
2019-04-21T10:57:06.284Z,577.5
2019-04-21T10:58:11.399Z,577.2
2019-04-21T10:59:16.231Z,577.3
2019-04-21T11:00:21.677Z,577.1
2019-04-21T11:01:27.784Z,577.4
2019-04-21T11:02:33.362Z,577.9
2019-04-21T11:03:40.374Z,577.2
2019-04-21T11:05:48.764Z,577.7
2019-04-21T11:10:16.010Z,577.8
2019-04-21T11:11:19.520Z,577
2019-04-21T11:12:24.425Z,577.9
2019-04-21T11:13:30.529Z,577.9
2019-04-21T11:14:35.797Z,577.8
2019-04-21T11:15:41.214Z,578.5
2019-04-21T11:19:02.001Z,578.7
2019-04-21T11:20:06.645Z,579.5
2019-04-21T11:21:13.183Z,578.7
2019-04-21T11:22:18.817Z,579.5
2019-04-21T11:24:29.632Z,579.3
2019-04-21T11:25:32.156Z,579.8
2019-04-21T11:26:37.820Z,579.4
2019-04-21T11:27:42.647Z,579.6
2019-04-21T11:29:57.572Z,579.7
2019-04-21T11:31:02.653Z,579.2
2019-04-21T11:32:07.715Z,579.2
2019-04-21T11:33:15.334Z,579.3
2019-04-21T11:34:19.239Z,579.1
2019-04-21T11:35:23.900Z,579.7
2019-04-21T11:36:29.196Z,579.9
2019-04-21T11:37:34.605Z,579.4
2019-04-21T11:40:49.621Z,580.1
2019-04-21T11:41:54.316Z,580
2019-04-21T11:42:59.714Z,579.8
2019-04-21T11:45:12.486Z,579.8
2019-04-21T11:46:16.186Z,580.2
2019-04-21T11:47:22.551Z,580.8
2019-04-21T11:48:28.674Z,580.8
2019-04-21T11:50:39.175Z,580.3
2019-04-21T11:51:44.853Z,580.9
2019-04-21T11:52:49.970Z,580.9
2019-04-21T11:53:54.941Z,580.5
2019-04-21T11:54:56.933Z,580.8
2019-04-21T11:56:02.848Z,581
2019-04-21T11:58:14.028Z,580.7
2019-04-21T11:59:20.133Z,580.9
2019-04-21T12:00:24.930Z,580.9
2019-04-21T12:01:30.254Z,581.3
2019-04-21T12:02:33.703Z,581.2
2019-04-21T12:03:41.886Z,581.6
2019-04-21T12:04:47.997Z,582.4
2019-04-21T12:05:51.662Z,582.3
2019-04-21T12:07:01.759Z,582.3
2019-04-21T12:09:14.578Z,581.9
2019-04-21T12:10:20.072Z,582
2019-04-21T12:11:25.183Z,581.7
2019-04-21T12:12:29.588Z,581.9
2019-04-21T12:13:36.087Z,582.6
2019-04-21T12:14:39.692Z,582.3
2019-04-21T12:15:45.100Z,581.9
2019-04-21T12:16:50.847Z,582.1
2019-04-21T12:17:57.386Z,582.6
2019-04-21T12:19:05.001Z,583.1
2019-04-21T12:20:10.817Z,582.9
2019-04-21T12:21:16.313Z,582.8
2019-04-21T12:23:27.335Z,583.4
2019-04-21T12:25:35.272Z,583.1
2019-04-21T12:26:40.131Z,582.5
2019-04-21T12:27:47.597Z,583.1
2019-04-21T12:28:53.566Z,583
2019-04-21T12:29:59.654Z,583.5
2019-04-21T12:31:03.300Z,583.8
2019-04-21T12:32:08.048Z,583.6
2019-04-21T12:33:14.486Z,583
2019-04-21T12:34:21.841Z,583.6
2019-04-21T12:35:28.514Z,583.6
2019-04-21T12:36:33.787Z,583.9
2019-04-21T12:37:38.594Z,583.8
2019-04-21T12:39:46.721Z,584.5
2019-04-21T12:40:52.738Z,584.2
2019-04-21T12:41:58.444Z,583.8
2019-04-21T12:43:03.436Z,584
2019-04-21T12:44:09.211Z,584.5
2019-04-21T12:45:12.990Z,584.4
2019-04-21T12:46:18.604Z,584.1
2019-04-21T12:47:23.766Z,584.5
2019-04-21T12:48:29.613Z,584.6
2019-04-21T12:49:34.365Z,585.1
2019-04-21T12:50:39.457Z,584.8
2019-04-21T12:51:47.925Z,585
2019-04-21T12:52:54.112Z,585.1
2019-04-21T12:53:59.464Z,585.4
2019-04-21T12:55:05.780Z,585.5
2019-04-21T12:56:13.544Z,586.3
2019-04-21T12:57:17.127Z,585.2
2019-04-21T12:58:21.917Z,585.2
2019-04-21T12:59:28.064Z,585.7
2019-04-21T13:00:34.334Z,585.7
2019-04-21T13:01:39.520Z,586.9
2019-04-21T13:02:41.945Z,587
2019-04-21T13:03:47.879Z,586.2
2019-04-21T13:05:57.997Z,587.4
2019-04-21T13:07:03.548Z,587.8
2019-04-21T13:08:07.628Z,587.6
2019-04-21T13:10:16.030Z,587.1
2019-04-21T13:11:23.269Z,587.5
2019-04-21T13:12:28.950Z,587.7
2019-04-21T13:13:33.184Z,587.7
2019-04-21T13:14:38.404Z,587.5
2019-04-21T13:15:43.180Z,587.9
2019-04-21T13:16:50.117Z,587.5
2019-04-21T13:17:56.305Z,587.5
2019-04-21T13:19:01.005Z,588.4
2019-04-21T13:20:07.250Z,588.8
2019-04-21T13:21:12.004Z,588.6
2019-04-21T13:22:18.113Z,589.4
2019-04-21T13:23:24.859Z,588.9
2019-04-21T13:24:29.511Z,588.5
2019-04-21T13:25:34.140Z,589.1
2019-04-21T13:27:47.134Z,589.2
2019-04-21T13:28:52.209Z,589.9
2019-04-21T13:29:57.034Z,590.2
2019-04-21T13:31:02.280Z,589.7
2019-04-21T13:33:16.064Z,590.3
2019-04-21T13:34:24.034Z,589.7
2019-04-21T13:35:33.028Z,590
2019-04-21T13:36:37.365Z,590.9
2019-04-21T13:37:43.341Z,590.9
2019-04-21T13:44:17.680Z,591.8
2019-04-21T13:45:21.766Z,591.6
2019-04-21T13:46:29.354Z,591.6
2019-04-21T13:47:36.984Z,591.8
2019-04-21T13:48:42.363Z,591.5
2019-04-21T13:49:49.496Z,591.4
2019-04-21T13:50:57.274Z,592.3
2019-04-21T13:52:01.039Z,592.3
2019-04-21T13:53:08.896Z,592.2
2019-04-21T13:54:15.577Z,592.4
2019-04-21T13:55:19.249Z,592.8
2019-04-21T13:56:28.800Z,592.8
2019-04-21T13:57:36.468Z,592.9
2019-04-21T13:58:44.203Z,593.2
2019-04-21T14:00:58.204Z,593.6
2019-04-21T14:02:06.743Z,593.4
2019-04-21T14:03:12.354Z,593.5
2019-04-21T14:04:20.254Z,593.5
2019-04-21T14:05:30.493Z,594.3
2019-04-21T14:06:40.425Z,594.9
2019-04-21T14:07:48.031Z,594.2
2019-04-21T14:08:55.135Z,594
2019-04-21T14:11:05.017Z,593.8
2019-04-21T14:12:09.648Z,594.5
2019-04-21T14:13:16.348Z,594.7
2019-04-21T14:14:21.594Z,595.2
2019-04-21T14:15:28.303Z,595.2
2019-04-21T14:16:34.503Z,594.9
2019-04-21T14:17:39.080Z,595
2019-04-21T14:18:43.875Z,595.6
2019-04-21T14:19:47.464Z,595.3
2019-04-21T14:20:53.362Z,594.9
2019-04-21T14:21:59.118Z,595.4
2019-04-21T14:24:10.802Z,595.5
2019-04-21T14:26:22.436Z,595.4
2019-04-21T14:27:28.666Z,596.2
2019-04-21T14:28:34.613Z,596.4
2019-04-21T14:29:41.706Z,596.5
2019-04-21T14:30:48.209Z,596.3
2019-04-21T14:31:53.446Z,596.2
2019-04-21T14:33:00.262Z,596.4
2019-04-21T14:34:05.949Z,596.9
2019-04-21T14:35:10.877Z,596.8
2019-04-21T14:36:18.846Z,596.8
2019-04-21T14:37:27.004Z,596.8
2019-04-21T14:38:32.126Z,597
2019-04-21T14:40:44.591Z,597
2019-04-21T14:41:50.458Z,596.5
2019-04-21T14:42:56.650Z,596.5
2019-04-21T14:44:04.668Z,597
2019-04-21T14:45:09.693Z,597.4
2019-04-21T14:46:15.168Z,597.2
2019-04-21T14:47:18.760Z,597.3
2019-04-21T14:48:25.730Z,597.4
2019-04-21T14:49:33.117Z,597.1
2019-04-21T14:50:37.582Z,597.8
2019-04-21T14:51:45.202Z,597.6
2019-04-21T14:52:50.421Z,597.5
2019-04-21T14:53:56.284Z,597.8
2019-04-21T14:55:02.814Z,597.8
2019-04-21T14:56:07.058Z,597.9
2019-04-21T14:57:13.409Z,598.1
2019-04-21T14:58:19.677Z,598.3
2019-04-21T14:59:24.480Z,598.1
2019-04-21T15:00:31.259Z,598.1
2019-04-21T15:01:37.709Z,598.2
2019-04-21T15:03:49.898Z,598.1
2019-04-21T15:04:59.518Z,598.5
2019-04-21T15:06:07.299Z,598.3
2019-04-21T15:07:11.199Z,598.6
2019-04-21T15:08:17.185Z,598.5
2019-04-21T15:09:23.430Z,598.5
2019-04-21T15:11:35.920Z,598.8
2019-04-21T15:12:41.540Z,598.7
2019-04-21T15:13:47.974Z,598.6
2019-04-21T15:14:54.194Z,598.5
2019-04-21T15:15:58.172Z,598.3
2019-04-21T15:17:02.913Z,598.8
2019-04-21T15:18:05.965Z,598.9
2019-04-21T15:19:12.680Z,598.8
2019-04-21T15:21:23.509Z,599.2
2019-04-21T15:22:28.226Z,598.9
2019-04-21T15:24:42.464Z,599.4
2019-04-21T15:25:50.153Z,599.1
2019-04-21T15:26:58.888Z,599.3
2019-04-21T15:28:03.715Z,599.1
2019-04-21T15:29:10.756Z,599.9
2019-04-21T15:30:14.270Z,598.9
2019-04-21T15:32:21.936Z,599.8
2019-04-21T15:33:27.070Z,599.6
2019-04-21T15:34:31.926Z,599.6
2019-04-21T15:35:37.803Z,600
2019-04-21T15:36:48.114Z,599.8
2019-04-21T15:37:55.815Z,599.8
2019-04-21T15:38:59.650Z,599.9
2019-04-21T15:42:14.567Z,599.7
2019-04-21T15:43:18.227Z,599.8
2019-04-21T15:44:24.709Z,599.7
2019-04-21T15:45:31.032Z,600
2019-04-21T15:47:42.114Z,600.1
2019-04-21T15:48:46.991Z,600.1
2019-04-21T15:50:56.758Z,600.2
2019-04-21T15:52:02.208Z,600.6
2019-04-21T15:53:09.639Z,600.5
2019-04-21T15:54:14.360Z,601.2
2019-04-21T15:55:19.369Z,601
2019-04-21T15:56:25.088Z,601.3
2019-04-21T15:57:30.534Z,601.1
2019-04-21T15:58:38.593Z,601.4
2019-04-21T15:59:44.298Z,601.6
2019-04-21T16:00:50.228Z,601.4
2019-04-21T16:01:54.587Z,601.4
2019-04-21T16:02:58.267Z,602.1
2019-04-21T16:05:12.844Z,601.7
2019-04-21T16:06:17.083Z,601.8
2019-04-21T16:07:22.218Z,601.6
2019-04-21T16:08:28.769Z,602
2019-04-21T16:11:46.007Z,601.9
2019-04-21T16:12:55.874Z,602.1
2019-04-21T16:14:03.611Z,602.1
2019-04-21T16:15:08.288Z,602.3
2019-04-21T16:16:17.195Z,602.2
2019-04-21T16:17:25.303Z,602.2
2019-04-21T16:18:32.151Z,602.8
2019-04-21T16:19:38.155Z,602.7
2019-04-21T16:20:45.884Z,602.5
2019-04-21T16:21:52.765Z,602.4
2019-04-21T16:22:58.257Z,602.7
2019-04-21T16:24:06.606Z,602.9
2019-04-21T16:25:14.813Z,602.5
2019-04-21T16:26:20.238Z,602.7
2019-04-21T16:27:27.550Z,602.8
2019-04-21T16:28:35.637Z,603
2019-04-21T16:29:41.707Z,603
2019-04-21T16:30:48.752Z,602.9
2019-04-21T16:31:55.111Z,603.2
2019-04-21T16:32:59.680Z,603.2
2019-04-21T16:34:05.624Z,603.4
2019-04-21T16:37:23.997Z,603.5
2019-04-21T16:38:27.714Z,603.9
2019-04-21T16:39:33.788Z,603.7
2019-04-21T16:41:46.455Z,603.6
2019-04-21T16:42:52.562Z,604.1
2019-04-21T16:43:56.400Z,604
2019-04-21T16:45:01.465Z,604.4
2019-04-21T16:46:04.905Z,604.3
2019-04-21T16:47:10.175Z,604.2
2019-04-21T16:48:17.419Z,604.4
2019-04-21T16:49:22.210Z,604.6
2019-04-21T16:50:29.662Z,604.5
2019-04-21T16:51:35.993Z,605.1
2019-04-21T16:52:41.222Z,604.7
2019-04-21T16:53:46.035Z,605
2019-04-21T16:54:53.581Z,604.9
2019-04-21T16:55:59.929Z,604.7
2019-04-21T16:57:07.974Z,604.5
2019-04-21T16:59:18.814Z,604.7
2019-04-21T17:02:36.596Z,604.7
2019-04-21T17:03:39.878Z,604.9
2019-04-21T17:04:44.870Z,604.9
2019-04-21T17:05:51.801Z,604.7
2019-04-21T17:06:56.915Z,604.7
2019-04-21T17:08:03.946Z,604.2
2019-04-21T17:09:06.455Z,604.9
2019-04-21T17:10:12.695Z,604.5
2019-04-21T17:13:31.804Z,604.8
2019-04-21T17:22:11.638Z,605
2019-04-21T17:23:17.566Z,604.5
2019-04-21T17:24:26.288Z,605.1
2019-04-21T17:27:42.830Z,604.9
2019-04-21T17:28:49.333Z,604.9
2019-04-21T17:29:58.864Z,605.5
2019-04-21T17:31:06.453Z,605.1
2019-04-21T17:35:28.884Z,604.8
2019-04-21T17:36:30.992Z,604.5
2019-04-21T17:37:37.940Z,604.2
2019-04-21T17:38:44.334Z,604.3
2019-04-21T17:39:49.419Z,604.7
2019-04-21T17:40:55.826Z,604.4
2019-04-21T17:44:11.574Z,604.4
2019-04-21T17:45:17.679Z,604.7
2019-04-21T17:49:41.022Z,604.6
2019-04-21T17:50:47.450Z,604.7
2019-04-21T18:13:34.634Z,604.2
2019-04-21T18:17:57.070Z,603.7
2019-04-21T18:19:02.442Z,603.9
2019-04-21T18:20:09.983Z,604.3
2019-04-21T18:21:14.793Z,604.1
2019-04-21T18:22:23.862Z,603.8
2019-04-21T18:27:48.187Z,604.3
2019-04-21T18:29:57.975Z,604
2019-04-21T18:31:04.537Z,604
2019-04-21T18:32:12.307Z,603.7
2019-04-21T18:58:20.567Z,602.1
2019-04-21T19:36:20.104Z,603.4
2019-04-21T19:55:52.532Z,603.7
2019-04-21T19:56:56.377Z,603.7
2019-04-21T19:58:01.449Z,604.2
2019-04-21T19:59:05.072Z,604.1
2019-04-21T20:01:23.294Z,604.1
2019-04-21T20:02:28.237Z,604.4
2019-04-21T20:03:34.634Z,603.9
2019-04-21T20:19:48.363Z,603.9
2019-04-21T20:20:58.051Z,604.2
2019-04-21T20:22:05.152Z,604.4
2019-04-21T21:54:09.601Z,610.9
2019-04-21T21:55:16.855Z,611
2019-04-21T21:56:24.606Z,610.7
2019-04-21T22:08:25.236Z,611.3
2019-04-21T22:09:32.278Z,611.5
2019-04-21T22:10:37.432Z,611.5
2019-04-21T22:11:48.524Z,611.9
2019-04-21T22:25:57.459Z,612.3
2019-04-21T22:27:05.307Z,612.1
2019-04-21T22:28:11.567Z,611.7
2019-04-21T22:29:16.609Z,611.9
2019-04-21T22:44:25.704Z,611.4
2019-04-21T22:45:33.343Z,611.4
2019-04-21T22:46:45.594Z,611.6
2019-04-21T22:49:58.842Z,611.4
2019-04-21T23:04:18.476Z,611.7
2019-04-21T23:09:42.941Z,612.1
2019-04-21T23:44:32.791Z,615.3
2019-04-21T23:46:48.794Z,614.9
2019-04-21T23:53:21.944Z,615.5
2019-04-21T23:54:29.212Z,615.9
2019-04-21T23:55:32.860Z,615.7
